createdAt,value
2019-03-08T00:00:15.081Z,6.92
2019-03-08T00:05:16.725Z,6.91
2019-03-08T00:10:18.359Z,6.92
2019-03-08T00:15:19.961Z,7.00
2019-03-08T00:20:21.541Z,7.03
2019-03-08T00:25:23.717Z,7.07
2019-03-08T00:30:25.401Z,7.11
2019-03-08T00:35:27.079Z,7.13
2019-03-08T00:40:28.705Z,7.17
2019-03-08T00:45:30.321Z,7.19
2019-03-08T00:50:32.305Z,7.19
2019-03-08T00:55:33.903Z,7.15
2019-03-08T01:00:35.639Z,7.19
2019-03-08T01:05:37.267Z,7.18
2019-03-08T01:10:38.837Z,7.16
2019-03-08T01:15:40.462Z,7.16
2019-03-08T01:20:42.073Z,7.14
2019-03-08T01:25:43.747Z,7.18
2019-03-08T01:30:45.337Z,7.24
2019-03-08T01:35:47.027Z,7.24
2019-03-08T01:40:48.594Z,7.33
2019-03-08T01:45:50.186Z,7.32
2019-03-08T01:50:52.258Z,7.24
2019-03-08T01:55:53.842Z,7.28
2019-03-08T02:00:55.415Z,7.25
2019-03-08T02:05:57.524Z,7.29
2019-03-08T02:10:59.592Z,7.30
2019-03-08T02:16:01.155Z,7.28
2019-03-08T02:21:06.748Z,7.28
2019-03-08T02:26:06.309Z,7.26
2019-03-08T02:31:07.948Z,7.25
2019-03-08T02:36:09.756Z,7.20
2019-03-08T02:41:11.366Z,7.18
2019-03-08T02:46:13.094Z,7.09
2019-03-08T02:51:14.967Z,7.18
2019-03-08T02:56:17.145Z,7.15
2019-03-08T03:01:18.960Z,7.19
2019-03-08T03:06:20.518Z,7.17
2019-03-08T03:11:22.093Z,7.17
2019-03-08T03:16:24.059Z,7.13
2019-03-08T03:21:25.732Z,7.10
2019-03-08T03:26:27.388Z,7.05
2019-03-08T03:31:29.405Z,7.03
2019-03-08T03:36:31.073Z,7.09
2019-03-08T03:41:32.678Z,7.05
2019-03-08T03:46:34.278Z,7.07
2019-03-08T03:51:35.871Z,7.03
2019-03-08T03:56:37.448Z,7.02
2019-03-08T04:01:39.524Z,7.02
2019-03-08T04:06:41.167Z,7.03
2019-03-08T04:11:43.266Z,6.97
2019-03-08T04:16:44.834Z,6.97
2019-03-08T04:21:46.422Z,6.98
2019-03-08T04:26:48.459Z,6.98
2019-03-08T04:31:50.010Z,6.97
2019-03-08T04:36:51.704Z,6.96
2019-03-08T04:41:53.238Z,6.97
2019-03-08T04:46:54.854Z,6.93
2019-03-08T04:51:56.454Z,6.96
2019-03-08T04:56:58.372Z,6.95
2019-03-08T05:02:00.553Z,6.96
2019-03-08T05:07:02.178Z,7.00
2019-03-08T05:12:03.746Z,6.96
2019-03-08T05:17:05.502Z,6.87
2019-03-08T05:22:07.257Z,6.87
2019-03-08T05:27:08.879Z,6.88
2019-03-08T05:32:10.531Z,6.87
2019-03-08T05:37:12.266Z,6.67
2019-03-08T05:42:13.853Z,6.50
2019-03-08T05:47:15.969Z,6.38
2019-03-08T05:52:17.592Z,6.32
2019-03-08T05:57:19.584Z,6.25
2019-03-08T06:02:21.255Z,6.26
2019-03-08T06:07:22.910Z,6.35
2019-03-08T06:12:24.514Z,6.23
2019-03-08T06:17:26.276Z,6.15
2019-03-08T06:22:27.905Z,6.29
2019-03-08T06:27:29.520Z,6.29
2019-03-08T06:32:31.173Z,6.32
2019-03-08T06:37:32.842Z,6.64
2019-03-08T06:42:34.805Z,6.58
2019-03-08T06:47:36.360Z,6.62
2019-03-08T06:52:38.601Z,6.49
2019-03-08T06:57:40.154Z,6.27
2019-03-08T07:02:41.830Z,6.08
2019-03-08T07:07:43.432Z,6.01
2019-03-08T07:12:45.058Z,6.07
2019-03-08T07:17:47.095Z,6.15
2019-03-08T07:22:51.678Z,6.23
2019-03-08T07:27:53.302Z,6.29
2019-03-08T07:32:54.867Z,6.56
2019-03-08T07:37:56.542Z,6.45
2019-03-08T07:42:58.444Z,6.29
2019-03-08T07:48:00.526Z,6.24
2019-03-08T07:53:02.529Z,6.30
2019-03-08T07:58:04.138Z,6.39
2019-03-08T08:03:05.716Z,6.47
2019-03-08T08:08:07.617Z,6.52
2019-03-08T08:13:09.558Z,6.66
2019-03-08T08:18:11.277Z,6.88
2019-03-08T08:23:12.881Z,7.03
2019-03-08T08:28:14.669Z,7.02
2019-03-08T08:33:16.779Z,7.02
2019-03-08T08:38:18.669Z,7.35
2019-03-08T08:43:20.364Z,7.61
2019-03-08T08:48:21.912Z,7.93
2019-03-08T08:53:23.460Z,7.75
2019-03-08T08:58:25.114Z,7.54
2019-03-08T09:03:26.687Z,7.28
2019-03-08T09:08:28.346Z,7.30
2019-03-08T09:13:30.261Z,7.52
2019-03-08T09:18:31.985Z,7.62
2019-03-08T09:23:33.715Z,8.16
2019-03-08T09:28:35.498Z,8.69
2019-03-08T09:33:37.078Z,8.80
2019-03-08T09:38:38.729Z,8.71
2019-03-08T09:43:40.342Z,8.81
2019-03-08T09:48:48.445Z,9.03
2019-03-08T09:53:45.665Z,9.20
2019-03-08T09:58:47.363Z,9.51
2019-03-08T10:03:48.965Z,9.30
2019-03-08T10:08:50.627Z,8.99
2019-03-08T10:13:52.312Z,8.75
2019-03-08T10:18:54.250Z,8.92
2019-03-08T10:23:55.873Z,9.23
2019-03-08T10:28:57.952Z,9.25
2019-03-08T10:34:00.510Z,9.25
2019-03-08T10:39:02.296Z,9.53
2019-03-08T10:44:08.911Z,9.63
2019-03-08T10:49:07.418Z,9.55
2019-03-08T10:54:09.217Z,9.23
2019-03-08T10:59:10.833Z,8.89
2019-03-08T11:04:14.814Z,8.89
2019-03-08T11:09:18.071Z,8.99
2019-03-08T11:14:20.462Z,9.38
2019-03-08T11:19:23.036Z,9.85
2019-03-08T11:24:24.848Z,10.33
2019-03-08T11:29:26.827Z,10.92
2019-03-08T11:34:28.447Z,10.72
2019-03-08T11:39:30.279Z,11.45
2019-03-08T11:44:32.824Z,11.48
2019-03-08T11:49:34.493Z,12.28
2019-03-08T11:54:40.860Z,12.47
2019-03-08T11:59:39.603Z,12.26
2019-03-08T12:04:41.289Z,11.88
2019-03-08T12:09:42.885Z,11.71
2019-03-08T12:14:45.031Z,11.69
2019-03-08T12:19:46.983Z,11.69
2019-03-08T12:24:49.012Z,11.97
2019-03-08T12:29:50.627Z,12.39
2019-03-08T12:34:54.463Z,12.55
2019-03-08T12:39:56.572Z,12.30
2019-03-08T12:44:58.301Z,12.33
2019-03-08T12:50:00.343Z,12.32
2019-03-08T12:55:02.054Z,12.12
2019-03-08T13:00:05.327Z,12.11
2019-03-08T13:05:07.330Z,12.11
2019-03-08T13:10:09.008Z,12.11
2019-03-08T13:15:12.329Z,11.64
2019-03-08T13:20:15.030Z,11.51
2019-03-08T13:25:16.817Z,11.78
2019-03-08T13:30:19.614Z,12.07
2019-03-08T13:35:21.435Z,12.12
2019-03-08T13:40:23.014Z,12.12
2019-03-08T13:45:24.634Z,11.91
2019-03-08T13:50:26.361Z,12.32
2019-03-08T13:55:28.486Z,12.89
2019-03-08T14:00:30.181Z,13.11
2019-03-08T14:05:31.992Z,12.79
2019-03-08T14:10:33.550Z,12.76
2019-03-08T14:15:35.172Z,12.83
2019-03-08T14:20:37.242Z,12.83
2019-03-08T14:25:38.840Z,12.99
2019-03-08T14:30:40.555Z,13.05
2019-03-08T14:35:42.152Z,13.14
2019-03-08T14:40:43.806Z,13.10
2019-03-08T14:45:46.098Z,12.90
2019-03-08T14:50:47.852Z,12.94
2019-03-08T14:55:49.840Z,12.72
2019-03-08T15:00:51.922Z,12.67
2019-03-08T15:05:54.888Z,12.40
2019-03-08T15:10:57.712Z,12.41
2019-03-08T15:16:02.173Z,12.38
2019-03-08T15:21:06.265Z,12.25
2019-03-08T15:26:08.381Z,12.09
2019-03-08T15:31:10.369Z,11.90
2019-03-08T15:36:12.214Z,11.87
2019-03-08T15:41:15.013Z,11.77
2019-03-08T15:46:18.663Z,11.76
2019-03-08T15:51:24.682Z,11.58
2019-03-08T15:56:25.472Z,11.35
2019-03-08T16:01:27.316Z,11.22
2019-03-08T16:06:29.423Z,11.01
2019-03-08T16:11:31.560Z,10.89
2019-03-08T16:16:33.329Z,10.79
2019-03-08T16:21:35.098Z,10.78
2019-03-08T16:26:37.950Z,10.72
2019-03-08T16:31:39.574Z,10.63
2019-03-08T16:36:41.646Z,10.56
2019-03-08T16:41:43.483Z,10.46
2019-03-08T16:46:46.161Z,10.37
2019-03-08T16:51:47.913Z,10.25
2019-03-08T16:56:49.811Z,10.18
2019-03-08T17:01:51.424Z,10.13
2019-03-08T17:06:53.448Z,10.03
2019-03-08T17:11:55.772Z,9.86
2019-03-08T17:16:57.850Z,9.79
2019-03-08T17:22:00.517Z,9.68
2019-03-08T17:27:03.613Z,9.46
2019-03-08T17:32:05.224Z,9.57
2019-03-08T17:37:07.066Z,9.52
2019-03-08T17:42:08.668Z,9.49
2019-03-08T17:47:10.272Z,9.43
2019-03-08T17:52:11.927Z,9.40
2019-03-08T17:57:14.019Z,9.31
2019-03-08T18:02:16.803Z,9.28
2019-03-08T18:07:18.556Z,9.18
2019-03-08T18:12:20.272Z,9.12
2019-03-08T18:17:21.887Z,9.06
2019-03-08T18:22:24.958Z,9.01
2019-03-08T18:27:26.530Z,9.00
2019-03-08T18:32:28.310Z,8.97
2019-03-08T18:37:30.352Z,8.88
2019-03-08T18:42:32.313Z,8.84
2019-03-08T18:47:34.006Z,8.78
2019-03-08T18:52:35.695Z,8.73
2019-03-08T18:57:37.789Z,8.63
2019-03-08T19:02:39.678Z,8.53
2019-03-08T19:07:41.371Z,8.43
2019-03-08T19:12:43.200Z,8.42
2019-03-08T19:17:45.176Z,8.43
2019-03-08T19:22:47.247Z,8.44
2019-03-08T19:27:48.970Z,8.44
2019-03-08T19:32:50.711Z,8.44
2019-03-08T19:37:52.722Z,8.46
2019-03-08T19:42:54.558Z,8.50
2019-03-08T19:47:56.982Z,8.52
2019-03-08T19:52:59.391Z,8.53
2019-03-08T19:58:01.188Z,8.55
2019-03-08T20:03:03.144Z,8.55
2019-03-08T20:08:04.791Z,8.56
2019-03-08T20:13:08.870Z,8.54
2019-03-08T20:18:10.901Z,8.48
2019-03-08T20:23:12.697Z,8.40
2019-03-08T20:28:14.463Z,8.37
2019-03-08T20:33:16.137Z,8.25
2019-03-08T20:38:17.904Z,8.08
2019-03-08T20:43:19.713Z,7.96
2019-03-08T20:48:21.678Z,7.79
2019-03-08T20:53:23.535Z,7.69
2019-03-08T20:58:25.318Z,7.58
2019-03-08T21:03:27.186Z,7.54
2019-03-08T21:08:29.046Z,7.44
2019-03-08T21:13:31.881Z,7.40
2019-03-08T21:18:33.980Z,7.38
2019-03-08T21:23:35.647Z,7.34
2019-03-08T21:28:38.534Z,7.31
2019-03-08T21:33:40.193Z,7.28
2019-03-08T21:38:41.846Z,7.25
2019-03-08T21:43:43.743Z,7.30
2019-03-08T21:48:46.441Z,7.33
2019-03-08T21:53:48.257Z,7.36
2019-03-08T21:58:50.990Z,7.40
2019-03-08T22:03:52.718Z,7.38
2019-03-08T22:08:54.349Z,7.36
2019-03-08T22:13:56.769Z,7.34
2019-03-08T22:18:58.454Z,7.33
2019-03-08T22:24:00.089Z,7.33
2019-03-08T22:29:01.995Z,7.32
2019-03-08T22:34:03.622Z,7.31
2019-03-08T22:39:05.832Z,7.29
2019-03-08T22:44:07.419Z,7.27
2019-03-08T22:49:09.430Z,7.24
2019-03-08T22:54:11.965Z,7.20
2019-03-08T22:59:13.561Z,7.18
2019-03-08T23:04:15.926Z,7.16
2019-03-08T23:09:17.608Z,7.14
2019-03-08T23:14:19.291Z,7.13
2019-03-08T23:19:21.005Z,7.15
2019-03-08T23:24:22.558Z,7.15
2019-03-08T23:29:24.269Z,7.13
2019-03-08T23:34:25.857Z,7.12
2019-03-08T23:39:28.141Z,7.13
2019-03-08T23:44:30.106Z,7.12
2019-03-08T23:49:32.099Z,7.11
2019-03-08T23:54:34.564Z,7.15
2019-03-08T23:59:36.162Z,7.18
